Time;durP1;ratioP1;P1;durP2;ratioP2;P2;SDS_P1;SDS_P2;PMS_P1;PMS_P2;Temp;Humidity;BMP_temperature;BMP_pressure;BME280_temperature;BME280_humidity;BME280_pressure;Samples;Min_cycle;Max_cycle;Signal;HPM_P1;HPM_P2
2022/11/28 00:01:55;;;;;;;2.20;1.30;;;11.30;99.90;;;;;;5012020;28;20017;-84
2022/11/28 00:04:21;;;;;;;2.50;1.27;;;11.20;99.90;;;;;;5000712;28;20437;-84
2022/11/28 00:06:50;;;;;;;2.05;1.10;;;11.20;99.90;;;;;;5061304;28;20308;-84
2022/11/28 00:09:18;;;;;;;1.55;1.00;;;11.20;99.90;;;;;;5015301;28;20278;-84
2022/11/28 00:11:47;;;;;;;2.30;1.30;;;11.20;99.90;;;;;;4999167;28;20025;-83
2022/11/28 00:14:13;;;;;;;2.58;1.50;;;11.20;99.90;;;;;;4997806;28;20221;-84
2022/11/28 00:16:39;;;;;;;1.85;1.20;;;11.20;99.90;;;;;;5013856;28;20052;-84
2022/11/28 00:19:05;;;;;;;1.90;1.00;;;11.20;99.90;;;;;;4995724;28;20179;-84
2022/11/28 00:21:31;;;;;;;2.10;1.20;;;11.10;99.90;;;;;;5038445;28;20017;-83
2022/11/28 00:23:58;;;;;;;2.20;1.20;;;11.20;99.90;;;;;;5022819;28;20388;-84
2022/11/28 00:26:36;;;;;;;1.70;1.20;;;11.10;99.90;;;;;;5030085;28;20659;-83
2022/11/28 00:29:04;;;;;;;2.33;1.08;;;11.10;99.90;;;;;;5017464;28;20470;-83
2022/11/28 00:31:32;;;;;;;2.23;1.07;;;11.10;99.90;;;;;;5019557;28;20065;-84
2022/11/28 00:34:00;;;;;;;1.60;1.05;;;11.10;99.90;;;;;;5017241;28;20616;-83
2022/11/28 00:36:27;;;;;;;1.10;0.95;;;11.10;99.90;;;;;;5001688;28;20275;-83
2022/11/28 00:38:52;;;;;;;2.15;1.20;;;11.10;99.90;;;;;;5043389;28;20021;-86
2022/11/28 00:41:21;;;;;;;1.77;1.00;;;11.10;99.90;;;;;;5021928;28;20025;-86
2022/11/28 00:43:48;;;;;;;2.15;1.30;;;11.00;99.90;;;;;;4992123;28;20863;-84
2022/11/28 00:46:15;;;;;;;1.85;1.10;;;11.00;99.90;;;;;;5029120;28;20021;-84
2022/11/28 00:48:42;;;;;;;2.53;1.20;;;10.90;99.90;;;;;;5042955;28;20029;-84
2022/11/28 00:51:12;;;;;;;1.70;0.90;;;10.90;99.90;;;;;;4978291;28;20032;-83
2022/11/28 00:53:40;;;;;;;2.05;1.10;;;10.90;99.90;;;;;;5021736;28;20107;-83
2022/11/28 00:56:07;;;;;;;2.20;1.02;;;10.90;99.90;;;;;;5046589;28;20052;-84
2022/11/28 00:58:34;;;;;;;1.50;1.00;;;10.80;99.90;;;;;;5007297;28;20116;-83
2022/11/28 01:01:06;;;;;;;1.02;0.93;;;10.80;99.90;;;;;;4987869;28;20018;-83
2022/11/28 01:03:31;;;;;;;2.27;1.03;;;10.80;99.90;;;;;;5041370;28;20017;-82
2022/11/28 01:05:57;;;;;;;1.80;1.30;;;10.70;99.90;;;;;;5000516;28;20025;-82
2022/11/28 01:08:22;;;;;;;1.60;1.10;;;10.70;99.90;;;;;;5001241;28;20115;-83
2022/11/28 01:10:48;;;;;;;3.33;1.63;;;10.70;99.90;;;;;;5012144;28;20402;-86
2022/11/28 01:13:14;;;;;;;1.90;1.30;;;10.70;99.90;;;;;;4991650;28;21661;-83
2022/11/28 01:15:41;;;;;;;1.90;1.23;;;10.60;99.90;;;;;;5034050;28;20017;-84
2022/11/28 01:18:06;;;;;;;2.85;1.20;;;10.60;99.90;;;;;;5003742;28;20873;-83
2022/11/28 01:20:32;;;;;;;2.22;1.30;;;10.60;99.90;;;;;;4999165;28;20025;-83
2022/11/28 01:22:58;;;;;;;1.70;1.10;;;10.60;99.90;;;;;;5024430;28;20022;-83
2022/11/28 01:25:24;;;;;;;1.90;1.10;;;10.50;99.90;;;;;;5020117;28;20103;-84
2022/11/28 01:27:49;;;;;;;1.60;1.20;;;10.50;99.90;;;;;;5051750;28;20059;-83
2022/11/28 01:30:15;;;;;;;2.00;1.08;;;10.60;99.90;;;;;;4995393;28;20141;-83
2022/11/28 01:32:41;;;;;;;2.67;1.20;;;10.50;99.90;;;;;;5016548;28;20073;-83
2022/11/28 01:35:07;;;;;;;1.80;1.20;;;10.50;99.90;;;;;;5004630;28;20032;-82
2022/11/28 01:37:33;;;;;;;1.45;1.05;;;10.50;99.90;;;;;;5002011;28;20482;-83
2022/11/28 01:39:58;;;;;;;2.17;1.10;;;10.50;99.90;;;;;;5018233;28;20285;-83
2022/11/28 01:42:24;;;;;;;1.73;1.05;;;10.50;99.90;;;;;;5049621;28;20040;-83
2022/11/28 01:44:53;;;;;;;1.70;1.10;;;10.50;99.90;;;;;;5011676;28;20057;-83
2022/11/28 01:47:26;;;;;;;2.15;1.08;;;10.50;99.90;;;;;;5014366;28;20433;-83
2022/11/28 01:49:54;;;;;;;1.80;1.10;;;10.50;99.90;;;;;;5019979;28;20112;-83
2022/11/28 01:52:21;;;;;;;2.22;1.17;;;10.50;99.90;;;;;;4999663;28;20039;-83
2022/11/28 01:54:51;;;;;;;1.40;0.93;;;10.40;99.90;;;;;;5021783;28;20049;-82
2022/11/28 01:57:21;;;;;;;2.03;1.00;;;10.40;99.90;;;;;;5024422;28;20061;-81
2022/11/28 02:00:10;;;;;;;2.03;1.20;;;10.40;99.90;;;;;;5018898;28;20091;-82
2022/11/28 02:02:44;;;;;;;2.20;1.27;;;10.40;99.90;;;;;;5023505;28;20103;-86
2022/11/28 02:05:10;;;;;;;1.63;1.00;;;10.40;99.90;;;;;;5020859;28;20358;-86
2022/11/28 02:07:37;;;;;;;2.10;1.20;;;10.40;99.90;;;;;;5001901;28;20997;-86
2022/11/28 02:10:08;;;;;;;2.15;1.25;;;10.40;99.90;;;;;;5012049;28;20068;-86
2022/11/28 02:12:38;;;;;;;2.42;1.30;;;10.40;99.90;;;;;;5039344;28;20829;-86
2022/11/28 02:15:21;;;;;;;2.08;1.10;;;10.40;99.90;;;;;;5004270;28;20234;-86
2022/11/28 02:17:47;;;;;;;2.92;1.40;;;10.40;99.90;;;;;;5006548;28;20070;-86
2022/11/28 02:20:35;;;;;;;2.20;1.00;;;10.40;99.90;;;;;;5013779;28;20471;-86
2022/11/28 02:23:24;;;;;;;2.20;1.20;;;10.40;99.90;;;;;;5003171;28;20269;-86
2022/11/28 02:26:19;;;;;;;2.67;1.27;;;10.40;99.90;;;;;;4998638;28;20048;-86
2022/11/28 02:29:00;;;;;;;2.20;1.20;;;10.40;99.90;;;;;;5012112;28;20030;-85
2022/11/28 02:31:35;;;;;;;2.33;1.20;;;10.40;99.90;;;;;;4988867;28;20079;-87
2022/11/28 02:34:22;;;;;;;3.22;1.77;;;10.40;99.90;;;;;;4997084;28;20627;-86
2022/11/28 02:37:00;;;;;;;3.17;1.60;;;10.40;99.90;;;;;;5040294;28;20037;-86
2022/11/28 02:40:06;;;;;;;1.88;1.25;;;10.40;99.90;;;;;;5011165;28;20494;-86
2022/11/28 02:42:56;;;;;;;1.97;1.20;;;10.40;99.90;;;;;;5000031;28;20033;-86
2022/11/28 02:45:34;;;;;;;1.83;1.23;;;10.40;99.90;;;;;;5022435;28;20029;-86
2022/11/28 02:48:12;;;;;;;1.70;1.00;;;10.40;99.90;;;;;;4989232;28;20130;-85
2022/11/28 02:50:54;;;;;;;1.98;1.42;;;10.40;99.90;;;;;;5026791;28;20101;-86
2022/11/28 02:53:24;;;;;;;1.70;1.17;;;10.40;99.90;;;;;;5033192;28;20080;-86
2022/11/28 02:55:51;;;;;;;1.63;1.00;;;10.40;99.90;;;;;;5005452;28;20176;-86
2022/11/28 02:58:17;;;;;;;1.50;1.00;;;10.50;99.90;;;;;;5039077;28;20100;-86
2022/11/28 03:00:45;;;;;;;2.00;1.20;;;10.50;99.90;;;;;;5022089;28;20031;-86
2022/11/28 03:03:20;;;;;;;2.00;1.30;;;10.50;99.90;;;;;;4990953;28;21140;-86
2022/11/28 03:06:04;;;;;;;1.48;1.02;;;10.50;99.90;;;;;;4994283;28;20255;-86
2022/11/28 03:08:36;;;;;;;1.50;1.00;;;10.50;99.90;;;;;;5022719;28;20575;-86
2022/11/28 03:11:39;;;;;;;1.52;1.15;;;10.50;99.90;;;;;;5011741;28;20413;-86
2022/11/28 03:14:31;;;;;;;1.80;1.15;;;10.50;99.90;;;;;;5033177;28;21428;-86
2022/11/28 03:17:08;;;;;;;2.03;1.10;;;10.50;99.90;;;;;;5002835;28;20147;-85
2022/11/28 03:19:41;;;;;;;1.50;1.08;;;10.50;99.90;;;;;;5034492;28;20030;-85
2022/11/28 03:22:20;;;;;;;1.40;1.00;;;10.50;99.90;;;;;;5013190;28;20492;-85
2022/11/28 03:24:50;;;;;;;1.33;1.00;;;10.50;99.90;;;;;;4992616;28;20025;-85
2022/11/28 03:27:39;;;;;;;2.42;1.40;;;10.50;99.90;;;;;;5024093;28;20033;-85
2022/11/28 03:30:21;;;;;;;2.05;1.10;;;10.50;99.90;;;;;;5016536;28;20275;-85
2022/11/28 03:32:50;;;;;;;1.98;1.20;;;10.50;99.90;;;;;;4996061;28;20068;-86
2022/11/28 03:35:21;;;;;;;1.57;1.00;;;10.50;99.90;;;;;;5007996;28;20036;-86
2022/11/28 03:37:54;;;;;;;1.38;1.13;;;10.50;99.90;;;;;;5017802;28;20025;-86
2022/11/28 03:40:26;;;;;;;1.60;1.08;;;10.50;99.90;;;;;;5034606;28;20021;-86
2022/11/28 03:43:04;;;;;;;1.92;1.20;;;10.50;99.90;;;;;;5009064;28;20024;-85
2022/11/28 03:45:38;;;;;;;1.88;1.30;;;10.50;99.90;;;;;;5032222;28;20034;-86
2022/11/28 03:48:11;;;;;;;1.87;1.20;;;10.50;99.90;;;;;;5041238;28;20276;-85
2022/11/28 03:50:44;;;;;;;1.73;1.10;;;10.60;99.90;;;;;;5002476;28;20037;-85
2022/11/28 03:53:16;;;;;;;1.42;1.00;;;10.50;99.90;;;;;;5029605;28;20718;-85
2022/11/28 03:55:56;;;;;;;1.77;1.30;;;10.50;99.90;;;;;;5039340;28;20055;-85
2022/11/28 03:58:47;;;;;;;1.55;1.13;;;10.60;99.90;;;;;;5011919;28;20029;-84
2022/11/28 04:01:39;;;;;;;1.37;0.97;;;10.50;99.90;;;;;;5026479;28;20088;-86
2022/11/28 04:04:09;;;;;;;1.48;1.10;;;10.60;99.90;;;;;;5001136;28;20203;-86
2022/11/28 04:06:48;;;;;;;1.67;1.15;;;10.60;99.90;;;;;;5008074;28;20082;-85
2022/11/28 04:09:20;;;;;;;1.67;1.10;;;10.60;99.90;;;;;;5043237;28;20036;-85
2022/11/28 04:11:54;;;;;;;1.10;1.00;;;10.60;99.90;;;;;;5026358;28;20152;-82
2022/11/28 04:14:28;;;;;;;1.40;1.10;;;10.60;99.90;;;;;;5008796;28;20116;-81
2022/11/28 04:17:02;;;;;;;1.63;1.10;;;10.50;99.90;;;;;;5048983;28;20068;-82
2022/11/28 04:20:19;;;;;;;1.65;1.20;;;10.60;99.90;;;;;;5042333;28;20130;-82
2022/11/28 04:22:54;;;;;;;1.63;1.00;;;10.60;99.90;;;;;;4979738;28;20041;-82
2022/11/28 04:25:23;;;;;;;1.23;0.85;;;10.60;99.90;;;;;;5050117;28;20493;-82
2022/11/28 04:28:03;;;;;;;1.83;1.10;;;10.60;99.90;;;;;;5011618;28;20021;-82
2022/11/28 04:30:29;;;;;;;1.23;0.90;;;10.60;99.90;;;;;;5033232;28;20032;-82
2022/11/28 04:33:01;;;;;;;1.85;1.15;;;10.60;99.90;;;;;;5024551;28;20229;-82
2022/11/28 04:35:35;;;;;;;3.72;1.40;;;10.60;99.90;;;;;;5024655;28;20631;-82
2022/11/28 04:38:05;;;;;;;1.33;1.10;;;10.60;99.90;;;;;;5002103;28;20032;-81
2022/11/28 04:40:36;;;;;;;1.40;1.05;;;10.60;99.90;;;;;;5001094;28;20358;-81
2022/11/28 04:43:09;;;;;;;1.95;1.30;;;10.60;99.90;;;;;;5023740;28;20158;-82
2022/11/28 04:45:41;;;;;;;1.98;1.17;;;10.60;99.90;;;;;;5023072;28;20049;-82
2022/11/28 04:48:07;;;;;;;1.70;1.20;;;10.60;99.90;;;;;;5024416;28;20026;-82
2022/11/28 04:50:47;;;;;;;1.37;1.07;;;10.60;99.90;;;;;;5040624;28;20035;-81
2022/11/28 04:53:21;;;;;;;1.70;1.20;;;10.60;99.90;;;;;;4997354;28;20029;-81
2022/11/28 04:55:53;;;;;;;1.85;1.23;;;10.60;99.90;;;;;;5014491;28;20152;-81
2022/11/28 04:58:34;;;;;;;1.67;1.23;;;10.60;99.90;;;;;;5026581;28;20028;-80
2022/11/28 05:01:03;;;;;;;1.93;1.37;;;10.70;99.90;;;;;;5003326;28;20115;-80
2022/11/28 05:03:29;;;;;;;2.58;1.27;;;10.70;99.90;;;;;;5039837;28;20440;-80
2022/11/28 05:05:55;;;;;;;1.90;1.40;;;10.70;99.90;;;;;;5015287;28;20021;-82
2022/11/28 05:08:21;;;;;;;2.45;1.50;;;10.70;99.90;;;;;;5024053;28;20033;-80
2022/11/28 05:10:47;;;;;;;2.50;1.50;;;10.70;99.90;;;;;;5004160;28;20033;-81
2022/11/28 05:13:13;;;;;;;2.10;1.35;;;10.70;99.90;;;;;;5024409;28;20025;-82
2022/11/28 05:15:39;;;;;;;2.57;1.70;;;10.70;99.90;;;;;;4994815;28;20051;-82
2022/11/28 05:18:05;;;;;;;2.63;1.67;;;10.70;99.90;;;;;;5009946;28;20643;-81
2022/11/28 05:20:31;;;;;;;2.63;1.50;;;10.70;99.90;;;;;;5022714;28;20026;-81
2022/11/28 05:22:57;;;;;;;2.25;1.38;;;10.60;99.90;;;;;;5022923;28;20134;-81
2022/11/28 05:25:23;;;;;;;2.40;1.57;;;10.70;99.90;;;;;;4999346;28;20041;-81
2022/11/28 05:27:48;;;;;;;2.28;1.67;;;10.70;99.90;;;;;;5024483;28;20037;-81
2022/11/28 05:30:14;;;;;;;3.00;1.73;;;10.70;99.90;;;;;;5023267;28;20064;-80
2022/11/28 05:32:40;;;;;;;3.13;1.75;;;10.70;99.90;;;;;;5001420;28;20408;-81
2022/11/28 05:35:06;;;;;;;2.55;1.55;;;10.70;99.90;;;;;;5018710;28;20041;-81
2022/11/28 05:37:32;;;;;;;2.55;1.73;;;10.70;99.90;;;;;;5006148;28;20606;-80
2022/11/28 05:39:58;;;;;;;3.27;2.07;;;10.70;99.90;;;;;;5006586;28;20531;-80
2022/11/28 05:42:24;;;;;;;3.30;2.17;;;10.70;99.90;;;;;;4985946;28;20645;-81
2022/11/28 05:44:50;;;;;;;3.10;2.00;;;10.80;99.90;;;;;;5033213;28;20689;-81
2022/11/28 05:47:16;;;;;;;3.97;2.55;;;10.80;99.90;;;;;;5003754;28;20119;-81
2022/11/28 05:49:42;;;;;;;3.95;1.95;;;10.80;99.90;;;;;;5032298;28;20022;-81
2022/11/28 05:52:08;;;;;;;3.78;2.28;;;10.80;99.90;;;;;;5019607;28;20414;-81
2022/11/28 05:54:34;;;;;;;4.37;2.27;;;10.80;99.90;;;;;;5008868;28;20103;-81
2022/11/28 05:56:59;;;;;;;4.25;2.33;;;10.80;99.90;;;;;;5003319;28;20250;-81
2022/11/28 05:59:25;;;;;;;4.10;2.37;;;10.80;99.90;;;;;;5029640;28;20112;-81
2022/11/28 06:01:51;;;;;;;3.85;2.10;;;10.80;99.90;;;;;;5003268;28;21038;-80
2022/11/28 06:04:16;;;;;;;3.57;2.47;;;10.80;99.90;;;;;;5002293;28;20017;-81
2022/11/28 06:06:42;;;;;;;4.15;2.22;;;10.80;99.90;;;;;;5025296;28;20021;-81
2022/11/28 06:09:07;;;;;;;3.37;2.07;;;10.80;99.90;;;;;;5005781;28;20091;-83
2022/11/28 06:11:34;;;;;;;4.17;2.40;;;10.80;99.90;;;;;;5008462;28;20563;-81
2022/11/28 06:14:01;;;;;;;3.67;2.10;;;10.80;99.90;;;;;;4999825;28;20033;-81
2022/11/28 06:16:28;;;;;;;4.40;2.55;;;10.80;99.90;;;;;;5041348;28;20082;-80
2022/11/28 06:18:56;;;;;;;3.95;2.35;;;10.80;99.90;;;;;;4989965;28;20032;-81
2022/11/28 06:21:23;;;;;;;4.43;2.63;;;10.80;99.90;;;;;;5020524;28;20025;-81
2022/11/28 06:23:49;;;;;;;5.30;2.80;;;10.80;99.90;;;;;;5010858;28;20029;-81
2022/11/28 06:26:17;;;;;;;4.00;2.50;;;10.80;99.90;;;;;;4990510;28;20607;-81
2022/11/28 06:28:43;;;;;;;4.47;2.80;;;10.80;99.90;;;;;;4994370;28;20030;-82
2022/11/28 06:31:15;;;;;;;4.88;2.80;;;10.80;99.90;;;;;;5039043;28;20036;-81
2022/11/28 06:33:41;;;;;;;4.70;2.75;;;10.80;99.90;;;;;;5020836;28;20419;-81
2022/11/28 06:36:08;;;;;;;4.47;2.90;;;10.80;99.90;;;;;;5001242;28;20028;-81
2022/11/28 06:38:34;;;;;;;4.50;2.88;;;10.90;99.90;;;;;;4990370;28;20594;-81
2022/11/28 06:41:02;;;;;;;4.60;2.95;;;10.90;99.90;;;;;;5024282;28;20048;-83
2022/11/28 06:43:29;;;;;;;4.82;3.10;;;10.90;99.90;;;;;;5027466;28;20128;-80
2022/11/28 06:45:55;;;;;;;5.63;3.07;;;10.90;99.90;;;;;;5014431;28;20075;-81
2022/11/28 06:48:21;;;;;;;4.32;2.78;;;10.90;99.90;;;;;;5012821;28;20025;-80
2022/11/28 06:50:47;;;;;;;5.75;3.65;;;10.90;99.90;;;;;;5005896;28;22046;-81
2022/11/28 06:53:13;;;;;;;4.82;2.97;;;10.90;99.90;;;;;;5036849;28;20029;-81
2022/11/28 06:55:39;;;;;;;5.85;3.47;;;10.90;99.90;;;;;;5021505;28;20322;-80
2022/11/28 06:58:05;;;;;;;5.07;3.10;;;10.90;99.90;;;;;;5047447;28;20090;-80
2022/11/28 07:00:31;;;;;;;4.80;3.00;;;10.90;99.90;;;;;;5006675;28;20498;-80
2022/11/28 07:02:57;;;;;;;5.53;3.45;;;11.00;99.90;;;;;;4996964;28;20055;-80
2022/11/28 07:05:26;;;;;;;4.53;3.13;;;10.90;99.90;;;;;;5008537;28;20029;-81
2022/11/28 07:07:58;;;;;;;5.57;3.50;;;11.00;99.90;;;;;;5029588;28;20734;-81
2022/11/28 07:10:24;;;;;;;6.22;3.67;;;10.90;99.90;;;;;;5009599;28;20093;-84
2022/11/28 07:12:55;;;;;;;5.45;3.60;;;11.00;99.90;;;;;;5011028;28;20029;-81
2022/11/28 07:15:21;;;;;;;5.45;3.45;;;11.00;99.90;;;;;;5015638;28;20025;-81
2022/11/28 07:17:47;;;;;;;5.18;2.95;;;11.00;99.90;;;;;;5010852;28;20064;-80
2022/11/28 07:20:13;;;;;;;6.20;4.23;;;11.00;99.90;;;;;;5001349;28;20481;-81
2022/11/28 07:22:39;;;;;;;5.50;3.50;;;11.00;99.90;;;;;;5002811;28;20672;-80
2022/11/28 07:25:05;;;;;;;5.30;3.30;;;11.00;99.90;;;;;;5006272;28;20028;-80
2022/11/28 07:27:31;;;;;;;7.03;3.67;;;11.00;99.90;;;;;;5002159;28;20060;-80
2022/11/28 07:29:57;;;;;;;5.95;3.95;;;11.10;99.90;;;;;;4990452;28;20230;-81
2022/11/28 07:32:22;;;;;;;7.23;4.13;;;11.00;99.90;;;;;;5025021;28;20034;-80
2022/11/28 07:34:48;;;;;;;6.15;3.90;;;11.10;99.90;;;;;;4977589;28;20358;-80
2022/11/28 07:37:14;;;;;;;6.67;4.03;;;11.10;99.90;;;;;;5008413;28;20112;-80
2022/11/28 07:39:43;;;;;;;6.10;3.90;;;11.00;99.90;;;;;;5008479;28;20021;-80
2022/11/28 07:42:11;;;;;;;6.00;3.67;;;11.00;99.90;;;;;;5027941;28;20653;-81
2022/11/28 07:44:37;;;;;;;4.85;3.28;;;11.00;99.90;;;;;;4994269;28;20025;-81
2022/11/28 07:47:03;;;;;;;5.40;3.60;;;11.10;99.90;;;;;;5009943;28;20036;-80
2022/11/28 07:49:28;;;;;;;5.03;2.95;;;11.10;99.90;;;;;;5016056;28;20043;-80
2022/11/28 07:51:54;;;;;;;4.27;3.00;;;11.10;99.90;;;;;;5003703;28;20037;-81
2022/11/28 07:54:20;;;;;;;5.05;3.15;;;11.10;99.90;;;;;;5001932;28;20385;-80
2022/11/28 07:56:45;;;;;;;5.00;3.13;;;11.10;99.90;;;;;;4990904;28;20625;-80
2022/11/28 07:59:11;;;;;;;4.70;2.95;;;11.10;99.90;;;;;;5032516;28;20025;-81
2022/11/28 08:01:37;;;;;;;3.90;2.63;;;11.20;99.90;;;;;;5025487;28;20040;-81
2022/11/28 08:04:05;;;;;;;4.72;2.92;;;11.20;99.90;;;;;;5045581;28;20045;-80
2022/11/28 08:06:34;;;;;;;4.35;2.70;;;11.20;99.90;;;;;;5031568;28;20345;-81
2022/11/28 08:09:00;;;;;;;4.10;2.70;;;11.20;99.90;;;;;;5045001;28;20656;-82
2022/11/28 08:11:28;;;;;;;4.10;2.70;;;11.20;99.90;;;;;;5009765;28;20041;-83
2022/11/28 08:13:55;;;;;;;4.93;2.80;;;11.20;99.90;;;;;;4990558;28;20184;-82
2022/11/28 08:16:22;;;;;;;5.50;3.42;;;11.20;99.90;;;;;;4970508;28;20430;-82
2022/11/28 08:18:49;;;;;;;5.10;3.30;;;11.20;99.90;;;;;;5020026;28;20808;-82
2022/11/28 08:21:18;;;;;;;4.77;3.20;;;11.30;99.90;;;;;;4985064;28;20269;-82
2022/11/28 08:23:44;;;;;;;4.63;2.92;;;11.30;99.90;;;;;;5008396;28;20053;-82
2022/11/28 08:26:13;;;;;;;5.55;2.80;;;11.30;99.90;;;;;;5006571;28;20076;-82
2022/11/28 08:28:40;;;;;;;6.40;3.33;;;11.30;99.90;;;;;;5015216;28;20035;-82
2022/11/28 08:31:12;;;;;;;4.38;2.80;;;11.30;99.90;;;;;;5038890;28;20369;-82
2022/11/28 08:33:38;;;;;;;7.40;3.63;;;11.30;99.90;;;;;;5025161;28;20047;-82
2022/11/28 08:36:06;;;;;;;7.45;3.72;;;11.30;99.90;;;;;;5012549;28;20029;-84
2022/11/28 08:38:32;;;;;;;6.22;3.42;;;11.30;99.90;;;;;;5011141;28;20067;-82
2022/11/28 08:41:06;;;;;;;6.50;3.65;;;11.40;99.90;;;;;;5019378;28;20522;-83
2022/11/28 08:43:33;;;;;;;5.77;3.13;;;11.40;99.90;;;;;;5009910;28;20044;-82
2022/11/28 08:45:59;;;;;;;11.32;4.20;;;11.40;99.90;;;;;;5028274;28;20029;-82
2022/11/28 08:48:25;;;;;;;5.95;3.20;;;11.40;99.90;;;;;;5021214;28;21477;-81
2022/11/28 08:50:51;;;;;;;6.18;3.63;;;11.40;99.90;;;;;;5031779;28;20035;-83
2022/11/28 08:53:17;;;;;;;6.57;3.50;;;11.50;99.90;;;;;;5003987;28;20060;-83
2022/11/28 08:55:43;;;;;;;6.72;3.67;;;11.50;99.90;;;;;;5045974;28;20652;-82
2022/11/28 08:58:10;;;;;;;6.43;3.70;;;11.50;99.90;;;;;;5048049;28;20120;-83
2022/11/28 09:00:36;;;;;;;5.43;3.27;;;11.50;99.90;;;;;;5032070;28;20046;-82
2022/11/28 09:03:02;;;;;;;6.47;3.60;;;11.50;99.90;;;;;;4995487;28;20063;-85
2022/11/28 09:05:29;;;;;;;7.18;3.85;;;11.50;99.90;;;;;;4994831;28;20701;-83
2022/11/28 09:07:55;;;;;;;7.43;3.50;;;11.50;99.90;;;;;;5011982;28;20034;-82
2022/11/28 09:10:21;;;;;;;6.53;3.27;;;11.50;99.90;;;;;;5014885;28;20253;-82
2022/11/28 09:12:47;;;;;;;6.35;3.80;;;11.50;99.90;;;;;;5038068;28;20063;-83
2022/11/28 09:15:12;;;;;;;7.00;3.70;;;11.60;99.90;;;;;;5012735;28;20120;-82
2022/11/28 09:17:39;;;;;;;6.37;3.70;;;11.60;99.90;;;;;;5025700;28;20044;-82
2022/11/28 09:20:06;;;;;;;6.57;3.80;;;11.60;99.90;;;;;;4986244;28;20560;-82
2022/11/28 09:22:32;;;;;;;5.93;3.72;;;11.60;99.90;;;;;;5023444;28;20323;-82
2022/11/28 09:24:57;;;;;;;6.90;3.80;;;11.70;99.90;;;;;;5014964;28;20033;-82
2022/11/28 09:27:23;;;;;;;7.25;3.67;;;11.70;99.90;;;;;;5027770;28;20032;-81
2022/11/28 09:29:49;;;;;;;7.63;4.00;;;11.80;99.90;;;;;;5017304;28;20485;-81
2022/11/28 09:32:15;;;;;;;7.65;4.32;;;11.80;99.90;;;;;;5010280;28;20470;-82
2022/11/28 09:34:40;;;;;;;7.03;3.87;;;11.90;99.90;;;;;;5000846;28;20646;-81
2022/11/28 09:37:06;;;;;;;6.97;4.13;;;11.90;99.90;;;;;;4998911;28;20036;-81
2022/11/28 09:39:31;;;;;;;6.73;4.07;;;11.90;99.90;;;;;;4998006;28;20048;-81
2022/11/28 09:42:01;;;;;;;7.85;4.20;;;11.90;99.90;;;;;;5023940;28;20033;-81
2022/11/28 09:44:49;;;;;;;6.93;4.23;;;12.00;99.90;;;;;;5000300;28;20343;-82
2022/11/28 09:47:25;;;;;;;7.38;4.13;;;12.00;99.90;;;;;;4995443;28;23419;-80
2022/11/28 09:50:04;;;;;;;6.07;3.53;;;12.00;99.90;;;;;;5001757;28;20025;-81
2022/11/28 09:53:14;;;;;;;6.75;3.60;;;12.10;99.90;;;;;;5008968;28;20235;-80
2022/11/28 09:55:48;;;;;;;7.13;4.22;;;12.10;99.90;;;;;;5012544;28;20128;-80
2022/11/28 09:58:37;;;;;;;6.53;3.80;;;12.10;99.90;;;;;;5022423;28;20108;-81
2022/11/28 10:01:26;;;;;;;8.73;3.85;;;12.10;99.90;;;;;;5004749;28;20533;-81
2022/11/28 10:04:19;;;;;;;7.38;3.42;;;12.10;99.90;;;;;;4978866;28;20076;-80
2022/11/28 10:07:12;;;;;;;7.45;3.97;;;12.20;99.90;;;;;;4999247;28;20313;-81
2022/11/28 10:09:57;;;;;;;6.53;3.35;;;12.20;99.90;;;;;;5006439;28;20034;-81
2022/11/28 10:13:01;;;;;;;8.40;3.67;;;12.20;99.90;;;;;;5000907;28;20051;-81
2022/11/28 10:15:39;;;;;;;9.13;4.10;;;12.20;99.90;;;;;;5007471;28;20390;-81
2022/11/28 10:18:08;;;;;;;8.05;3.63;;;12.30;99.90;;;;;;5050381;28;20032;-83
2022/11/28 10:20:40;;;;;;;8.45;3.72;;;12.30;99.90;;;;;;4990676;28;20282;-81
2022/11/28 10:23:20;;;;;;;6.60;3.58;;;12.30;99.90;;;;;;5037021;28;20092;-81
2022/11/28 10:25:53;;;;;;;5.57;3.07;;;12.30;99.90;;;;;;4995738;28;20691;-81
2022/11/28 10:28:25;;;;;;;6.30;3.80;;;12.40;99.90;;;;;;5024671;28;20029;-81
2022/11/28 10:31:09;;;;;;;9.10;3.92;;;12.40;99.90;;;;;;5029580;28;20049;-81
2022/11/28 10:33:45;;;;;;;10.40;4.07;;;12.50;99.90;;;;;;4982228;28;20321;-80
2022/11/28 10:36:29;;;;;;;8.13;3.65;;;12.60;99.90;;;;;;5013606;28;20079;-81
2022/11/28 10:38:56;;;;;;;7.07;3.40;;;12.60;99.90;;;;;;5028999;28;20029;-81
2022/11/28 10:41:33;;;;;;;6.35;3.33;;;12.70;99.90;;;;;;4999352;28;20469;-82
2022/11/28 10:44:13;;;;;;;8.48;3.78;;;12.70;99.90;;;;;;5008536;28;20025;-81
2022/11/28 10:46:46;;;;;;;5.88;3.67;;;12.80;99.90;;;;;;5038401;28;20059;-81
2022/11/28 10:49:30;;;;;;;5.50;3.22;;;12.80;99.90;;;;;;4983665;28;20498;-81
2022/11/28 10:52:02;;;;;;;5.30;3.00;;;12.90;99.90;;;;;;5013583;28;20017;-80
2022/11/28 10:54:56;;;;;;;7.07;3.53;;;12.90;99.90;;;;;;5048170;28;20442;-80
2022/11/28 10:57:48;;;;;;;6.35;3.50;;;12.90;99.90;;;;;;4984788;28;21570;-80
2022/11/28 11:00:19;;;;;;;6.35;3.30;;;13.10;99.90;;;;;;5038042;28;20408;-80
2022/11/28 11:02:47;;;;;;;6.20;3.00;;;13.00;99.90;;;;;;5022434;28;20026;-80
2022/11/28 11:05:24;;;;;;;6.20;3.03;;;13.10;99.90;;;;;;4990445;28;20414;-80
2022/11/28 11:07:55;;;;;;;5.85;3.15;;;13.10;99.90;;;;;;5009325;28;20017;-81
2022/11/28 11:10:30;;;;;;;5.97;3.13;;;13.10;99.90;;;;;;5014612;28;20030;-81
2022/11/28 11:12:57;;;;;;;7.07;3.38;;;13.10;99.90;;;;;;4985567;28;20053;-80
2022/11/28 11:15:30;;;;;;;9.15;3.85;;;13.10;99.90;;;;;;5025611;28;20032;-81
2022/11/28 11:17:57;;;;;;;7.20;3.57;;;13.10;99.90;;;;;;5039940;28;20032;-80
2022/11/28 11:20:25;;;;;;;5.85;3.17;;;13.10;99.90;;;;;;4993124;28;20226;-80
2022/11/28 11:22:57;;;;;;;5.32;3.15;;;13.00;99.90;;;;;;5027593;28;20033;-80
2022/11/28 11:25:28;;;;;;;6.45;3.45;;;13.00;99.90;;;;;;4998375;28;20246;-80
2022/11/28 11:27:58;;;;;;;7.07;3.78;;;13.00;99.90;;;;;;5011212;28;20034;-80
2022/11/28 11:30:34;;;;;;;7.70;3.60;;;13.10;99.90;;;;;;5017841;28;20353;-81
2022/11/28 11:33:02;;;;;;;6.45;3.25;;;13.10;99.90;;;;;;5010923;28;20025;-81
2022/11/28 11:35:43;;;;;;;7.32;3.60;;;13.10;99.90;;;;;;5000300;28;20989;-81
2022/11/28 11:38:32;;;;;;;5.45;2.97;;;13.10;99.90;;;;;;4981477;28;20091;-80
2022/11/28 11:41:35;;;;;;;6.18;3.13;;;13.20;99.90;;;;;;5002971;28;20029;-80
2022/11/28 11:44:25;;;;;;;5.93;3.53;;;13.20;99.90;;;;;;5026269;28;20025;-80
2022/11/28 11:47:08;;;;;;;7.45;3.30;;;13.20;99.90;;;;;;5023110;28;20056;-81
2022/11/28 11:49:40;;;;;;;6.65;3.40;;;13.20;99.90;;;;;;5032122;28;20048;-80
2022/11/28 11:52:12;;;;;;;7.43;3.47;;;13.30;99.90;;;;;;5003717;28;20037;-80
2022/11/28 11:54:56;;;;;;;9.32;3.83;;;13.30;99.90;;;;;;5006685;28;20390;-81
2022/11/28 11:57:43;;;;;;;6.80;3.47;;;13.30;99.90;;;;;;5010314;28;20242;-81
2022/11/28 12:00:09;;;;;;;6.50;3.38;;;13.20;99.90;;;;;;4994369;28;20148;-80
2022/11/28 12:02:54;;;;;;;6.57;3.38;;;13.30;99.90;;;;;;5027500;28;20037;-81
2022/11/28 12:05:22;;;;;;;7.68;3.53;;;13.30;99.90;;;;;;5019560;28;20570;-81
2022/11/28 12:07:56;;;;;;;6.17;3.53;;;13.30;99.90;;;;;;4992601;28;20196;-81
2022/11/28 12:10:26;;;;;;;7.07;3.72;;;13.20;99.90;;;;;;5002050;28;20025;-81
2022/11/28 12:12:52;;;;;;;6.70;3.47;;;13.20;99.90;;;;;;5006435;28;20669;-81
2022/11/28 12:15:45;;;;;;;6.43;3.35;;;13.30;99.90;;;;;;5047555;28;20076;-80
2022/11/28 12:18:31;;;;;;;9.35;3.85;;;13.30;99.90;;;;;;4993284;28;20074;-81
2022/11/28 12:21:18;;;;;;;6.03;3.13;;;13.30;99.90;;;;;;5027225;28;20025;-81
2022/11/28 12:24:12;;;;;;;8.07;3.80;;;13.30;99.90;;;;;;4995367;28;20032;-80
2022/11/28 12:26:46;;;;;;;8.07;3.60;;;13.20;99.90;;;;;;5015369;28;20037;-82
2022/11/28 12:29:20;;;;;;;7.90;3.70;;;13.30;99.90;;;;;;5028735;28;20599;-83
2022/11/28 12:32:05;;;;;;;6.70;3.42;;;13.30;99.90;;;;;;5007994;28;20045;-81
2022/11/28 12:35:08;;;;;;;7.63;3.87;;;13.30;99.90;;;;;;5014988;28;20036;-81
2022/11/28 12:37:42;;;;;;;7.75;3.35;;;13.30;99.90;;;;;;4996037;28;20124;-81
2022/11/28 12:40:37;;;;;;;8.63;3.10;;;13.30;99.90;;;;;;5013994;28;20112;-82
2022/11/28 12:43:14;;;;;;;6.60;3.05;;;13.30;99.90;;;;;;5024764;28;20048;-81
2022/11/28 12:46:01;;;;;;;5.57;2.95;;;13.20;99.90;;;;;;5014575;28;20227;-81
2022/11/28 12:48:39;;;;;;;7.10;3.00;;;13.20;99.90;;;;;;5007824;28;20029;-81
2022/11/28 12:51:22;;;;;;;7.75;2.92;;;13.20;99.90;;;;;;5027182;28;20500;-81
2022/11/28 12:54:18;;;;;;;6.30;2.92;;;13.20;99.90;;;;;;5016483;28;20731;-81
2022/11/28 12:57:04;;;;;;;7.40;3.08;;;13.20;99.90;;;;;;4961560;28;20037;-81
2022/11/28 12:59:48;;;;;;;7.60;3.30;;;13.20;99.90;;;;;;5012595;28;20025;-81
2022/11/28 13:02:14;;;;;;;8.27;3.27;;;13.20;99.90;;;;;;5045003;28;20033;-81
2022/11/28 13:05:04;;;;;;;5.90;2.97;;;13.20;99.90;;;;;;4987377;28;21009;-81
2022/11/28 13:08:04;;;;;;;6.53;2.60;;;13.20;99.90;;;;;;5047323;28;20025;-81
2022/11/28 13:10:54;;;;;;;7.60;2.90;;;13.20;99.90;;;;;;5011471;28;20667;-81
2022/11/28 13:13:38;;;;;;;6.18;3.38;;;13.30;99.90;;;;;;4998153;28;20086;-81
2022/11/28 13:16:44;;;;;;;7.18;3.20;;;13.30;99.90;;;;;;5029861;28;20377;-81